Time;durP1;ratioP1;P1;durP2;ratioP2;P2;SDS_P1;SDS_P2;PMS_P1;PMS_P2;Temp;Humidity;BMP_temperature;BMP_pressure;BME280_temperature;BME280_humidity;BME280_pressure;Samples;Min_cycle;Max_cycle;Signal;HPM_P1;HPM_P2
2022/08/02 00:02:04;;;;;;;4.60;3.53;;;;;;;25.05;44.46;99104.56;5070180;28;20214;-59
2022/08/02 00:04:31;;;;;;;3.33;3.13;;;;;;;24.94;44.32;99107.69;5070103;28;20611;-59
2022/08/02 00:06:58;;;;;;;3.50;3.20;;;;;;;24.96;44.58;99108.50;5069953;28;20566;-59
2022/08/02 00:09:25;;;;;;;3.42;3.13;;;;;;;24.95;44.49;99104.16;5069626;28;20441;-59
2022/08/02 00:11:53;;;;;;;3.53;3.33;;;;;;;24.88;44.50;99102.75;5070159;28;20188;-59
2022/08/02 00:14:20;;;;;;;3.50;3.30;;;;;;;24.87;44.76;99106.28;5069876;28;20198;-59
2022/08/02 00:16:47;;;;;;;3.53;3.23;;;;;;;24.77;44.92;99117.28;5069834;28;20191;-59
2022/08/02 00:19:13;;;;;;;3.33;3.10;;;;;;;24.68;45.17;99105.44;5069846;28;20196;-59
2022/08/02 00:21:40;;;;;;;3.57;3.37;;;;;;;24.62;45.70;99118.84;5069868;28;20630;-59
2022/08/02 00:24:07;;;;;;;4.53;3.57;;;;;;;24.47;45.54;99094.16;5069670;28;20246;-59
2022/08/02 00:26:34;;;;;;;4.30;3.40;;;;;;;24.51;45.53;99114.09;5070032;28;20191;-59
2022/08/02 00:29:02;;;;;;;3.63;3.33;;;;;;;24.50;45.53;99111.56;5069889;28;20269;-59
2022/08/02 00:31:29;;;;;;;3.60;3.37;;;;;;;24.50;45.69;99108.94;5069569;28;20202;-59
2022/08/02 00:33:56;;;;;;;3.72;3.30;;;;;;;24.51;45.47;99108.00;5068598;28;20446;-59
2022/08/02 00:36:23;;;;;;;4.60;3.00;;;;;;;24.59;45.55;99108.47;5070045;28;20203;-59
2022/08/02 00:38:50;;;;;;;3.80;3.60;;;;;;;24.57;45.26;99112.97;5072228;28;20187;-60
2022/08/02 00:41:19;;;;;;;4.00;3.20;;;;;;;24.42;45.39;99088.25;5073655;28;20191;-59
2022/08/02 00:43:46;;;;;;;3.50;3.20;;;;;;;24.51;45.71;99118.50;5073667;28;20670;-59
2022/08/02 00:46:16;;;;;;;3.40;3.10;;;;;;;24.51;45.30;99108.00;5073797;28;20194;-60
2022/08/02 00:48:42;;;;;;;3.10;2.90;;;;;;;24.50;45.80;99111.56;5073808;28;20282;-59
2022/08/02 00:51:09;;;;;;;3.93;3.23;;;;;;;24.46;46.14;99110.84;5073610;28;20187;-59
2022/08/02 00:53:36;;;;;;;3.47;3.00;;;;;;;24.46;45.49;99116.09;5074152;28;20218;-59
2022/08/02 00:56:03;;;;;;;3.27;3.00;;;;;;;24.43;45.69;99110.13;5073658;28;20184;-59
2022/08/02 00:58:30;;;;;;;3.60;3.33;;;;;;;24.40;45.46;99110.25;5073510;28;20246;-59
2022/08/02 01:00:59;;;;;;;3.87;3.47;;;;;;;24.44;45.28;99098.69;5073640;28;20214;-59
2022/08/02 01:03:28;;;;;;;3.67;2.90;;;;;;;24.24;45.30;99083.00;5073486;28;20200;-59
2022/08/02 01:05:54;;;;;;;3.70;3.40;;;;;;;24.40;45.26;99107.63;5073077;28;20219;-59
2022/08/02 01:08:21;;;;;;;3.10;2.90;;;;;;;24.35;45.56;99101.75;5073181;28;20192;-59
2022/08/02 01:10:48;;;;;;;4.13;3.23;;;;;;;24.36;45.21;99099.06;5073221;28;20187;-59
2022/08/02 01:13:15;;;;;;;4.00;3.10;;;;;;;24.39;45.13;99108.56;5072446;28;20557;-59
2022/08/02 01:15:51;;;;;;;3.17;2.87;;;;;;;24.40;45.18;99099.75;5073240;28;20282;-59
2022/08/02 01:18:26;;;;;;;3.40;3.20;;;;;;;24.36;45.36;99101.69;5072978;28;20666;-59
2022/08/02 01:21:23;;;;;;;3.50;3.20;;;;;;;24.25;45.11;99080.31;5073182;28;20207;-59
2022/08/02 01:24:18;;;;;;;3.43;3.13;;;;;;;24.37;45.39;99102.50;5073080;28;20187;-59
2022/08/02 01:26:50;;;;;;;3.57;3.27;;;;;;;24.32;45.26;99107.13;5072914;28;20196;-59
2022/08/02 01:29:23;;;;;;;4.50;3.90;;;;;;;24.22;45.52;99101.47;5072894;28;20199;-60
2022/08/02 01:31:57;;;;;;;4.67;3.30;;;;;;;24.19;45.79;99100.75;5072896;28;20199;-59
2022/08/02 01:34:32;;;;;;;3.30;3.10;;;;;;;24.17;46.00;99102.59;5072826;28;20188;-59
2022/08/02 01:37:07;;;;;;;3.70;3.40;;;;;;;24.11;45.95;99100.22;5072142;28;20449;-59
2022/08/02 01:39:36;;;;;;;3.90;3.60;;;;;;;24.12;46.37;99105.41;5072697;28;20191;-58
2022/08/02 01:42:04;;;;;;;3.60;3.40;;;;;;;24.06;46.49;99103.88;5072596;28;20195;-60
2022/08/02 01:44:35;;;;;;;3.87;3.40;;;;;;;24.05;46.26;99099.56;5072629;28;20281;-59
2022/08/02 01:47:07;;;;;;;3.47;3.17;;;;;;;23.93;46.70;99096.59;5072622;28;20191;-59
2022/08/02 01:49:37;;;;;;;4.20;3.40;;;;;;;23.92;46.60;99101.03;5071120;28;20196;-59
2022/08/02 01:52:22;;;;;;;3.70;3.40;;;;;;;23.93;46.45;99093.97;5072825;28;20203;-59
2022/08/02 01:54:50;;;;;;;4.27;3.63;;;;;;;23.91;46.60;99090.59;5072431;28;20187;-59
2022/08/02 01:57:21;;;;;;;3.70;3.40;;;;;;;23.81;46.71;99084.03;5072260;28;20669;-59
2022/08/02 01:59:51;;;;;;;3.60;3.30;;;;;;;23.78;46.83;99095.53;5072293;28;20203;-59
2022/08/02 02:02:19;;;;;;;4.50;3.60;;;;;;;23.80;47.06;99092.81;5072437;28;20318;-59
2022/08/02 02:04:49;;;;;;;3.63;3.33;;;;;;;23.67;46.89;99055.78;5072262;28;20276;-60
2022/08/02 02:07:18;;;;;;;4.00;3.20;;;;;;;23.78;46.59;99077.16;5072230;28;20188;-59
2022/08/02 02:09:46;;;;;;;3.43;3.13;;;;;;;23.75;46.98;99087.78;5072039;28;20720;-60
2022/08/02 02:12:14;;;;;;;3.67;3.47;;;;;;;23.76;47.05;99084.22;5072062;28;20192;-59
2022/08/02 02:14:44;;;;;;;4.00;3.07;;;;;;;23.69;47.53;99072.31;5072044;28;20723;-59
2022/08/02 02:17:15;;;;;;;3.47;3.17;;;;;;;23.63;47.63;99076.97;5072036;28;20508;-59
2022/08/02 02:19:42;;;;;;;3.53;3.27;;;;;;;23.64;47.74;99078.66;5071993;28;20286;-59
2022/08/02 02:22:09;;;;;;;3.57;3.07;;;;;;;23.59;47.62;99086.75;5071979;28;20670;-59
2022/08/02 02:24:36;;;;;;;3.07;2.87;;;;;;;23.61;47.74;99084.03;5072121;28;20202;-59
2022/08/02 02:27:05;;;;;;;4.40;3.13;;;;;;;23.59;47.62;99080.66;5071964;28;20203;-59
2022/08/02 02:29:34;;;;;;;3.43;3.10;;;;;;;23.60;47.74;99085.81;5072118;28;20195;-59
2022/08/02 02:32:02;;;;;;;3.67;3.27;;;;;;;23.53;47.92;99078.28;5071561;28;20666;-59
2022/08/02 02:34:33;;;;;;;3.37;3.07;;;;;;;23.49;47.77;99083.66;5071595;28;20191;-59
2022/08/02 02:37:04;;;;;;;3.17;2.83;;;;;;;23.53;47.82;99078.28;5071691;28;20582;-59
2022/08/02 02:39:33;;;;;;;3.13;2.83;;;;;;;23.54;47.30;99074.75;5071446;28;20199;-59
2022/08/02 02:42:03;;;;;;;3.27;3.07;;;;;;;23.57;47.21;99072.81;5071400;28;20621;-59
2022/08/02 02:44:31;;;;;;;2.60;2.40;;;;;;;23.61;46.94;99078.81;5071548;28;20245;-59
2022/08/02 02:46:59;;;;;;;3.77;2.83;;;;;;;23.67;46.59;99081.16;5071517;28;20187;-59
2022/08/02 02:49:27;;;;;;;2.87;2.67;;;;;;;23.66;46.62;99076.81;5071377;28;20195;-59
2022/08/02 02:51:57;;;;;;;2.80;2.63;;;;;;;23.60;46.91;99080.56;5071315;28;20191;-59
2022/08/02 02:54:25;;;;;;;4.90;2.60;;;;;;;23.56;46.62;99079.00;5071197;28;20196;-59
2022/08/02 02:56:53;;;;;;;4.23;3.00;;;;;;;23.55;46.81;99077.28;5071440;28;20195;-59
2022/08/02 02:59:20;;;;;;;3.67;3.37;;;;;;;23.59;46.54;99084.13;5070970;28;20273;-59
2022/08/02 03:01:47;;;;;;;3.60;3.30;;;;;;;23.60;46.91;99083.19;5070679;28;20677;-59
2022/08/02 03:04:16;;;;;;;3.03;2.77;;;;;;;23.38;46.97;99053.56;5070885;28;20736;-60
2022/08/02 03:06:43;;;;;;;3.83;3.20;;;;;;;23.48;47.47;99091.59;5071115;28;20226;-60
2022/08/02 03:09:11;;;;;;;4.00;3.70;;;;;;;23.47;47.81;99084.63;5071122;28;20605;-59
2022/08/02 03:11:39;;;;;;;10.13;3.43;;;;;;;23.46;47.42;99080.28;5071106;28;20198;-59
2022/08/02 03:14:10;;;;;;;7.47;4.10;;;;;;;23.29;47.35;99054.75;5070901;28;20195;-59
2022/08/02 03:16:43;;;;;;;6.07;3.20;;;;;;;23.42;47.07;99086.59;5070744;28;20195;-59
2022/08/02 03:19:09;;;;;;;3.50;3.20;;;;;;;23.39;46.96;99082.34;5070606;28;20546;-59
2022/08/02 03:21:36;;;;;;;3.65;3.25;;;;;;;23.41;47.10;99084.88;5070074;28;20445;-59
2022/08/02 03:24:03;;;;;;;5.40;3.43;;;;;;;23.49;46.64;99091.53;5070875;28;20191;-59
2022/08/02 03:26:32;;;;;;;6.87;3.30;;;;;;;23.53;47.02;99092.25;5070534;28;20222;-59
2022/08/02 03:28:58;;;;;;;3.97;3.60;;;;;;;23.48;47.27;99094.22;5070579;28;20202;-59
2022/08/02 03:31:25;;;;;;;9.73;3.37;;;;;;;23.37;47.62;99099.03;5070475;28;20199;-59
2022/08/02 03:33:53;;;;;;;3.50;3.30;;;;;;;23.30;47.89;99090.56;5070494;28;20686;-59
2022/08/02 03:36:22;;;;;;;3.47;3.17;;;;;;;23.31;48.41;99097.50;5070597;28;20192;-59
2022/08/02 03:38:51;;;;;;;4.93;3.90;;;;;;;23.28;48.75;99096.78;5070546;28;20718;-59
2022/08/02 03:41:20;;;;;;;4.47;3.73;;;;;;;23.34;48.89;99105.25;5070430;28;20196;-60
2022/08/02 03:43:50;;;;;;;4.43;3.67;;;;;;;23.29;49.22;99103.75;5070364;28;20445;-60
2022/08/02 03:46:19;;;;;;;4.20;3.80;;;;;;;23.27;49.40;99113.41;5070211;28;20219;-60
2022/08/02 03:48:47;;;;;;;3.93;3.60;;;;;;;23.29;49.48;99115.06;5070523;28;20195;-60
2022/08/02 03:51:15;;;;;;;3.67;3.40;;;;;;;23.27;49.31;99116.03;5070433;28;20187;-60
2022/08/02 03:53:42;;;;;;;4.50;3.70;;;;;;;23.25;49.53;99125.75;5070093;28;20200;-59
2022/08/02 03:56:10;;;;;;;7.37;3.90;;;;;;;23.24;49.61;99121.44;5070128;28;20582;-59
2022/08/02 03:58:36;;;;;;;4.17;3.50;;;;;;;23.25;49.56;99123.97;5069931;28;20224;-60
2022/08/02 04:01:05;;;;;;;4.70;3.90;;;;;;;23.19;49.31;99115.50;5070220;28;20195;-59
2022/08/02 04:03:32;;;;;;;4.47;3.60;;;;;;;23.19;49.75;99123.38;5070122;28;20199;-60
2022/08/02 04:05:59;;;;;;;4.37;3.40;;;;;;;23.24;49.04;99121.44;5070058;28;20227;-60
2022/08/02 04:08:26;;;;;;;3.33;3.13;;;;;;;23.31;48.59;99121.13;5069664;28;20206;-60
2022/08/02 04:13:48;;;;;;;3.50;3.20;;;;;;;23.42;47.37;99111.06;5026930;28;20327;-59
2022/08/02 04:16:22;;;;;;;4.10;3.53;;;;;;;23.52;47.52;99119.38;5059172;28;20654;-59
2022/08/02 04:18:54;;;;;;;5.80;2.93;;;;;;;23.59;47.15;99120.84;5069538;28;20253;-60
2022/08/02 04:21:24;;;;;;;3.13;2.93;;;;;;;23.74;46.58;99124.56;5069513;28;20195;-60
2022/08/02 04:23:52;;;;;;;3.13;2.83;;;;;;;23.79;46.31;99122.59;5069741;28;20187;-59
2022/08/02 04:26:20;;;;;;;4.35;3.22;;;;;;;23.92;46.28;99127.28;5068654;28;20449;-60
2022/08/02 04:28:48;;;;;;;3.53;3.17;;;;;;;24.11;46.03;99129.97;5069811;28;20252;-66
2022/08/02 04:31:18;;;;;;;4.93;4.43;;;;;;;24.17;45.49;99131.47;5069430;28;20191;-66
2022/08/02 04:33:45;;;;;;;4.57;3.17;;;;;;;24.21;45.52;99130.41;5069605;28;20658;-66
2022/08/02 04:36:13;;;;;;;3.30;3.07;;;;;;;24.26;45.94;99138.91;5069411;28;20196;-67
2022/08/02 04:38:41;;;;;;;3.50;3.30;;;;;;;24.30;45.85;99143.97;5069981;28;20586;-67
2022/08/02 04:41:08;;;;;;;3.60;3.30;;;;;;;24.28;46.06;99137.09;5070023;28;20195;-65
2022/08/02 04:43:35;;;;;;;3.67;3.37;;;;;;;24.27;46.00;99138.84;5069613;28;20217;-65
2022/08/02 04:46:03;;;;;;;4.00;3.60;;;;;;;24.28;45.85;99147.59;5069533;28;20219;-66
2022/08/02 04:48:31;;;;;;;3.70;3.40;;;;;;;24.30;45.83;99140.50;5068983;28;20441;-67
2022/08/02 04:50:58;;;;;;;3.37;3.07;;;;;;;24.31;45.18;99137.78;5069462;28;20196;-66
2022/08/02 04:53:25;;;;;;;4.40;3.57;;;;;;;24.36;45.18;99137.59;5069462;28;20207;-66
2022/08/02 04:55:52;;;;;;;5.03;3.50;;;;;;;24.39;45.19;99135.66;5069395;28;20191;-65
2022/08/02 04:58:18;;;;;;;4.87;3.77;;;;;;;24.40;44.60;99144.41;5069209;28;20219;-65
2022/08/02 05:00:45;;;;;;;4.97;4.33;;;;;;;24.50;45.05;99135.19;5069328;28;20191;-66
2022/08/02 05:03:13;;;;;;;4.30;3.90;;;;;;;24.58;45.71;99146.22;5069225;28;20199;-66
2022/08/02 05:05:41;;;;;;;6.30;4.00;;;;;;;24.67;44.99;99142.31;5069042;28;20227;-66
2022/08/02 05:08:08;;;;;;;4.33;3.93;;;;;;;24.58;45.14;99136.53;5069244;28;20235;-66
2022/08/02 05:10:36;;;;;;;3.60;3.30;;;;;;;24.59;45.66;99142.63;5068962;28;20191;-65
2022/08/02 05:13:05;;;;;;;5.37;4.17;;;;;;;24.62;45.21;99156.50;5068837;28;20195;-65
2022/08/02 05:15:32;;;;;;;5.47;4.03;;;;;;;24.77;44.75;99159.34;5068768;28;20191;-66
2022/08/02 05:17:59;;;;;;;3.97;3.67;;;;;;;24.79;44.95;99150.50;5068843;28;20691;-65
2022/08/02 05:20:26;;;;;;;4.10;3.80;;;;;;;24.91;43.90;99151.69;5068901;28;20195;-66
2022/08/02 05:22:54;;;;;;;3.77;3.47;;;;;;;25.02;43.50;99157.28;5068918;28;20203;-66
2022/08/02 05:25:21;;;;;;;4.17;3.77;;;;;;;25.10;43.97;99147.25;5071984;28;20203;-66
2022/08/02 05:27:48;;;;;;;3.83;3.50;;;;;;;25.25;44.45;99154.38;5072249;28;20198;-65
2022/08/02 05:30:15;;;;;;;4.90;3.83;;;;;;;25.37;42.92;99163.47;5070940;28;20437;-66
2022/08/02 05:32:46;;;;;;;3.67;3.37;;;;;;;25.44;42.55;99159.59;5072555;28;20199;-66
2022/08/02 05:35:14;;;;;;;5.40;3.77;;;;;;;25.40;42.63;99158.06;5072349;28;20202;-66
2022/08/02 05:37:40;;;;;;;3.70;3.40;;;;;;;25.42;42.39;99151.78;5072222;28;20188;-66
2022/08/02 05:40:10;;;;;;;3.57;3.37;;;;;;;25.46;42.11;99153.34;5071873;28;20195;-66
2022/08/02 05:42:37;;;;;;;5.43;3.17;;;;;;;25.59;41.18;99164.16;5071630;28;20198;-66
2022/08/02 05:45:04;;;;;;;4.93;3.50;;;;;;;25.60;40.58;99166.69;5071946;28;20268;-66
2022/08/02 05:47:31;;;;;;;3.83;3.10;;;;;;;25.54;40.54;99153.00;5071743;28;20215;-66
2022/08/02 05:49:58;;;;;;;4.30;3.20;;;;;;;25.64;40.41;99167.38;5071581;28;20666;-67
2022/08/02 05:52:26;;;;;;;5.13;3.58;;;;;;;25.71;40.32;99159.09;5071298;28;20449;-67
2022/08/02 05:55:05;;;;;;;3.40;3.10;;;;;;;25.85;39.60;99163.66;5071914;28;20225;-66
2022/08/02 05:57:42;;;;;;;4.87;3.70;;;;;;;25.89;39.55;99159.97;5071739;28;20670;-65
2022/08/02 06:00:12;;;;;;;6.67;4.63;;;;;;;25.97;39.38;99167.47;5071773;28;20206;-66
2022/08/02 06:03:00;;;;;;;6.17;3.77;;;;;;;25.86;38.75;99165.38;5071931;28;20219;-67
2022/08/02 06:05:32;;;;;;;4.17;3.77;;;;;;;26.01;39.45;99172.50;5071552;28;20196;-67
2022/08/02 06:07:59;;;;;;;5.93;3.60;;;;;;;25.98;38.92;99156.88;5071643;28;20678;-66
2022/08/02 06:10:28;;;;;;;4.73;3.60;;;;;;;26.07;38.94;99177.44;5071560;28;20249;-66
2022/08/02 06:13:08;;;;;;;3.67;3.37;;;;;;;26.19;38.52;99182.09;5071604;28;20264;-66
2022/08/02 06:15:36;;;;;;;3.53;2.70;;;;;;;26.15;38.50;99171.81;5071531;28;20245;-66
2022/08/02 06:18:05;;;;;;;4.53;3.35;;;;;;;26.13;38.54;99171.00;5071809;28;20195;-66
2022/08/02 06:20:35;;;;;;;3.50;3.10;;;;;;;26.02;39.04;99158.38;5071479;28;20238;-60
2022/08/02 06:23:03;;;;;;;5.00;3.20;;;;;;;26.21;38.74;99174.97;5071953;28;20291;-60
2022/08/02 06:25:31;;;;;;;3.55;3.25;;;;;;;26.34;38.53;99185.72;5071205;28;20207;-60
2022/08/02 06:28:00;;;;;;;3.77;2.90;;;;;;;26.25;38.26;99165.13;5071346;28;20219;-60
2022/08/02 06:30:27;;;;;;;3.40;3.10;;;;;;;26.31;38.25;99192.03;5071201;28;20188;-60
2022/08/02 06:32:55;;;;;;;5.93;2.85;;;;;;;26.26;38.83;99195.81;5071110;28;20510;-60
2022/08/02 06:35:22;;;;;;;3.47;2.90;;;;;;;26.33;38.55;99195.41;5070319;28;20674;-59
2022/08/02 06:37:52;;;;;;;5.65;3.13;;;;;;;26.47;38.43;99197.31;5070911;28;20187;-60
2022/08/02 06:40:26;;;;;;;4.90;3.00;;;;;;;26.62;38.14;99198.25;5071218;28;20192;-60
2022/08/02 06:43:05;;;;;;;3.58;3.08;;;;;;;26.60;38.62;99187.81;5071203;28;20282;-60
2022/08/02 06:45:33;;;;;;;10.35;3.83;;;;;;;26.67;38.71;99194.44;5071192;28;20654;-60
2022/08/02 06:48:00;;;;;;;4.72;3.58;;;;;;;26.74;38.22;99185.28;5070709;28;20220;-60
2022/08/02 06:50:27;;;;;;;2.97;2.67;;;;;;;26.81;38.72;99189.31;5070927;28;20195;-59
2022/08/02 06:52:54;;;;;;;3.42;2.97;;;;;;;26.90;38.66;99186.19;5070757;28;20195;-59
2022/08/02 06:55:21;;;;;;;5.30;3.33;;;;;;;27.03;38.66;99181.06;5070673;28;20198;-60
2022/08/02 06:57:48;;;;;;;3.28;2.90;;;;;;;27.14;37.87;99178.69;5069408;28;20446;-60
2022/08/02 07:00:16;;;;;;;3.72;3.40;;;;;;;27.30;37.71;99182.19;5070330;28;20751;-60
2022/08/02 07:02:43;;;;;;;3.10;2.90;;;;;;;27.38;37.50;99187.00;5070355;28;20199;-60
2022/08/02 07:05:10;;;;;;;3.53;2.75;;;;;;;27.35;37.18;99182.75;5070462;28;20202;-60
2022/08/02 07:07:37;;;;;;;5.20;3.15;;;;;;;27.18;37.56;99166.19;5069719;28;20219;-60
2022/08/02 07:10:05;;;;;;;5.40;3.20;;;;;;;27.39;37.14;99183.41;5069609;28;20195;-60
2022/08/02 07:12:33;;;;;;;4.22;2.85;;;;;;;27.47;36.86;99181.22;5069793;28;20191;-60
2022/08/02 07:15:01;;;;;;;4.20;3.00;;;;;;;27.39;37.33;99173.72;5070248;28;20215;-60
2022/08/02 07:17:29;;;;;;;2.83;2.63;;;;;;;27.47;36.63;99186.50;5070091;28;20199;-60
2022/08/02 07:19:56;;;;;;;5.30;2.83;;;;;;;27.45;36.50;99186.59;5069785;28;20188;-60
2022/08/02 07:22:25;;;;;;;5.53;3.10;;;;;;;27.34;36.83;99178.41;5069831;28;20252;-60
2022/08/02 07:24:52;;;;;;;3.45;2.72;;;;;;;27.45;36.77;99194.53;5069675;28;20187;-60
2022/08/02 07:27:20;;;;;;;3.30;3.00;;;;;;;27.47;37.03;99189.13;5069479;28;20673;-59
2022/08/02 07:29:46;;;;;;;2.67;2.55;;;;;;;27.57;36.20;99189.47;5069921;28;20300;-60
2022/08/02 07:32:14;;;;;;;3.55;3.25;;;;;;;27.63;36.83;99183.84;5069765;28;20203;-59
2022/08/02 07:34:42;;;;;;;3.25;2.40;;;;;;;27.67;36.28;99188.00;5069841;28;20704;-60
2022/08/02 07:37:09;;;;;;;4.80;3.10;;;;;;;27.72;35.94;99178.88;5069708;28;20731;-60
2022/08/02 07:39:36;;;;;;;3.83;2.92;;;;;;;27.80;36.36;99176.63;5069714;28;20317;-60
2022/08/02 07:42:03;;;;;;;5.03;2.50;;;;;;;27.86;36.31;99178.06;5069965;28;20202;-61
2022/08/02 07:44:33;;;;;;;3.30;3.00;;;;;;;27.97;35.93;99171.19;5069812;28;20268;-60
2022/08/02 07:47:00;;;;;;;5.30;2.63;;;;;;;28.07;36.23;99182.13;5069344;28;20593;-60
2022/08/02 07:49:28;;;;;;;2.60;2.40;;;;;;;28.09;35.31;99177.56;5070066;28;20202;-60
2022/08/02 07:51:57;;;;;;;3.22;2.50;;;;;;;28.08;35.85;99187.28;5069673;28;20198;-60
2022/08/02 07:54:24;;;;;;;2.83;2.30;;;;;;;27.96;35.44;99168.66;5069272;28;20191;-60
2022/08/02 07:56:52;;;;;;;3.33;2.05;;;;;;;28.10;35.37;99184.56;5069105;28;20277;-60
2022/08/02 07:59:20;;;;;;;4.13;3.80;;;;;;;28.18;35.65;99179.69;5069182;28;20259;-60
2022/08/02 08:01:48;;;;;;;2.55;2.35;;;;;;;28.31;35.55;99169.19;5068193;28;20443;-60
2022/08/02 08:04:15;;;;;;;3.45;3.22;;;;;;;28.46;35.56;99176.16;5069406;28;20218;-60
2022/08/02 08:06:42;;;;;;;2.30;2.20;;;;;;;28.51;35.39;99177.59;5069081;28;20219;-60
2022/08/02 08:09:10;;;;;;;2.13;1.95;;;;;;;28.64;34.37;99178.56;5069346;28;20192;-61
2022/08/02 08:11:37;;;;;;;1.65;1.55;;;;;;;28.53;34.68;99188.94;5069275;28;20188;-60
2022/08/02 08:14:05;;;;;;;2.55;2.35;;;;;;;28.33;34.90;99140.88;5069184;28;20195;-61
2022/08/02 08:16:32;;;;;;;2.28;2.15;;;;;;;28.48;34.24;99183.09;5068712;28;20188;-60
2022/08/02 08:18:59;;;;;;;3.70;2.13;;;;;;;28.51;34.98;99182.06;5068847;28;20187;-60
2022/08/02 08:21:25;;;;;;;4.40;2.78;;;;;;;28.63;34.62;99187.44;5068789;28;20651;-60
2022/08/02 08:23:52;;;;;;;4.45;2.00;;;;;;;28.73;34.61;99186.88;5068845;28;20202;-60
2022/08/02 08:26:20;;;;;;;3.28;2.40;;;;;;;28.78;34.42;99185.66;5068846;28;20198;-60
2022/08/02 08:28:47;;;;;;;2.83;2.28;;;;;;;28.60;34.53;99179.66;5068867;28;20195;-60
2022/08/02 08:31:14;;;;;;;4.03;2.90;;;;;;;28.56;34.77;99166.75;5069040;28;20191;-60
2022/08/02 08:33:41;;;;;;;3.75;2.75;;;;;;;28.84;35.18;99185.25;5068669;28;20183;-60
2022/08/02 08:36:08;;;;;;;2.38;1.95;;;;;;;28.96;34.02;99184.47;5068524;28;20202;-59
2022/08/02 08:38:35;;;;;;;2.00;1.90;;;;;;;29.06;33.64;99184.75;5068717;28;20686;-60
2022/08/02 08:41:02;;;;;;;2.97;1.70;;;;;;;29.18;33.92;99187.44;5068688;28;20195;-60
2022/08/02 08:43:30;;;;;;;1.73;1.63;;;;;;;29.23;32.93;99181.88;5069002;28;20191;-60
2022/08/02 08:45:57;;;;;;;1.83;1.50;;;;;;;29.25;32.83;99180.81;5068793;28;20199;-60
2022/08/02 08:48:25;;;;;;;1.80;1.70;;;;;;;29.18;33.47;99183.94;5068485;28;20215;-60
2022/08/02 08:50:56;;;;;;;1.67;1.58;;;;;;;29.17;33.17;99179.63;5068811;28;20195;-60
2022/08/02 08:53:26;;;;;;;1.77;1.67;;;;;;;29.18;33.53;99178.66;5068759;28;20620;-61
2022/08/02 08:55:55;;;;;;;2.92;1.77;;;;;;;29.21;33.52;99176.69;5068706;28;20286;-60
2022/08/02 08:58:22;;;;;;;1.70;1.60;;;;;;;28.99;33.48;99175.47;5068495;28;20223;-60
2022/08/02 09:00:51;;;;;;;1.65;1.30;;;;;;;28.90;34.17;99176.91;5072883;28;20199;-60
2022/08/02 09:03:18;;;;;;;1.88;1.60;;;;;;;28.92;34.69;99185.63;5072743;28;20539;-60
2022/08/02 09:05:46;;;;;;;1.50;1.40;;;;;;;28.84;34.81;99174.69;5072821;28;20204;-60
2022/08/02 09:08:13;;;;;;;2.80;1.50;;;;;;;29.03;34.10;99180.50;5072645;28;20215;-60
2022/08/02 09:10:42;;;;;;;1.58;1.48;;;;;;;29.05;33.36;99175.09;5072635;28;20648;-59
2022/08/02 09:13:12;;;;;;;1.48;1.38;;;;;;;28.97;33.60;99174.75;5072908;28;20199;-60
2022/08/02 09:15:41;;;;;;;1.80;1.70;;;;;;;29.34;33.50;99162.66;5072772;28;20196;-60
2022/08/02 09:18:10;;;;;;;2.20;1.50;;;;;;;29.51;32.99;99165.88;5072117;28;20183;-60
2022/08/02 09:20:53;;;;;;;2.70;1.80;;;;;;;29.81;32.91;99168.31;5072314;28;20203;-60
2022/08/02 09:23:21;;;;;;;2.67;1.50;;;;;;;29.94;32.63;99166.56;5072389;28;20195;-60
2022/08/02 09:25:58;;;;;;;1.80;1.70;;;;;;;30.01;32.50;99167.81;5071933;28;20286;-60
2022/08/02 09:28:30;;;;;;;1.23;1.23;;;;;;;30.01;32.53;99159.88;5072050;28;20215;-60
2022/08/02 09:30:58;;;;;;;3.05;1.58;;;;;;;29.97;32.10;99161.00;5072265;28;20210;-61
2022/08/02 09:33:27;;;;;;;1.48;1.38;;;;;;;29.72;32.50;99127.38;5072019;28;20203;-61
2022/08/02 09:36:01;;;;;;;1.65;1.55;;;;;;;29.96;32.01;99151.38;5071877;28;20198;-60
2022/08/02 09:38:28;;;;;;;1.27;1.20;;;;;;;29.98;32.35;99159.22;5072043;28;20286;-60
2022/08/02 09:40:55;;;;;;;1.70;1.48;;;;;;;29.83;32.41;99131.13;5072178;28;20192;-60
2022/08/02 09:43:35;;;;;;;1.38;1.27;;;;;;;29.95;31.97;99149.69;5071757;28;20194;-60
2022/08/02 09:46:10;;;;;;;4.22;1.52;;;;;;;29.98;32.54;99151.28;5072060;28;20199;-60
2022/08/02 09:48:48;;;;;;;2.67;1.65;;;;;;;30.07;32.03;99151.50;5071945;28;20609;-61
2022/08/02 09:51:19;;;;;;;3.50;1.63;;;;;;;30.27;32.85;99155.44;5072220;28;20199;-60
2022/08/02 09:53:48;;;;;;;2.10;2.00;;;;;;;30.42;32.45;99156.19;5071652;28;20205;-60
2022/08/02 09:56:16;;;;;;;4.80;2.38;;;;;;;30.50;31.70;99151.19;5071837;28;20192;-59
2022/08/02 09:58:43;;;;;;;4.03;2.10;;;;;;;30.60;31.73;99157.53;5071420;28;20215;-59
2022/08/02 10:01:10;;;;;;;2.13;2.00;;;;;;;30.64;31.34;99154.56;5071464;28;20200;-60
2022/08/02 10:03:37;;;;;;;1.80;1.70;;;;;;;30.53;31.26;99151.81;5071586;28;20207;-60
2022/08/02 10:06:05;;;;;;;1.45;1.45;;;;;;;30.21;31.87;99143.44;5071293;28;20658;-60
2022/08/02 10:08:33;;;;;;;2.45;1.40;;;;;;;30.00;32.42;99158.16;5071471;28;20245;-59
2022/08/02 10:11:03;;;;;;;1.98;1.50;;;;;;;29.81;32.09;99150.63;5070130;28;20203;-59
2022/08/02 10:13:31;;;;;;;1.60;1.50;;;;;;;29.90;32.17;99149.16;5071205;28;20199;-60
2022/08/02 10:15:58;;;;;;;1.80;1.70;;;;;;;30.01;32.10;99145.75;5071468;28;20246;-60
2022/08/02 10:18:25;;;;;;;1.77;1.67;;;;;;;30.04;31.46;99142.91;5071084;28;20697;-61
2022/08/02 10:20:55;;;;;;;1.75;1.65;;;;;;;30.14;32.59;99141.31;5071129;28;20202;-60
2022/08/02 10:23:26;;;;;;;1.70;1.60;;;;;;;30.20;31.33;99144.41;5071014;28;20202;-60
2022/08/02 10:25:54;;;;;;;1.92;1.73;;;;;;;30.21;31.44;99124.03;5070994;28;20207;-60
2022/08/02 10:28:27;;;;;;;1.70;1.60;;;;;;;30.38;31.82;99115.78;5070578;28;20581;-59
2022/08/02 10:30:56;;;;;;;2.60;2.40;;;;;;;30.52;31.45;99138.69;5070839;28;20705;-60
2022/08/02 10:33:26;;;;;;;3.67;1.92;;;;;;;30.67;32.00;99132.28;5070870;28;20199;-59
2022/08/02 10:35:56;;;;;;;2.30;2.15;;;;;;;30.81;31.21;99140.94;5070500;28;20203;-60
2022/08/02 10:38:25;;;;;;;2.15;2.03;;;;;;;30.69;31.62;99140.94;5070729;28;20188;-60
2022/08/02 10:40:55;;;;;;;2.67;1.88;;;;;;;30.38;31.46;99142.31;5071240;28;20215;-61
2022/08/02 10:43:42;;;;;;;2.50;2.10;;;;;;;30.51;32.26;99144.94;5071026;28;20192;-60
2022/08/02 10:46:38;;;;;;;2.63;2.10;;;;;;;30.30;31.65;99141.94;5070438;28;20628;-60
2022/08/02 10:49:11;;;;;;;3.60;2.10;;;;;;;30.33;31.86;99139.94;5028167;28;20527;-60
2022/08/02 10:52:09;;;;;;;1.80;1.70;;;;;;;30.39;31.87;99143.97;5062295;28;20277;-60
2022/08/02 10:54:39;;;;;;;8.40;3.22;;;;;;;30.66;31.76;99131.41;5028244;28;20197;-60
2022/08/02 10:57:25;;;;;;;2.00;1.80;;;;;;;30.84;31.21;99132.75;5061225;28;20260;-61
2022/08/02 10:59:55;;;;;;;2.55;2.15;;;;;;;30.76;31.23;99136.91;5070376;28;20710;-61
2022/08/02 11:02:35;;;;;;;7.18;4.05;;;;;;;30.70;32.03;99137.34;5070275;28;20256;-61
2022/08/02 11:05:06;;;;;;;2.53;2.40;;;;;;;30.67;32.69;99133.13;5070377;28;20191;-68
2022/08/02 11:07:37;;;;;;;3.53;2.70;;;;;;;30.89;31.86;99129.75;5070291;28;20308;-66
2022/08/02 11:10:33;;;;;;;1.85;1.75;;;;;;;31.18;30.51;99127.69;5070584;28;20195;-67
2022/08/02 11:13:04;;;;;;;1.90;1.75;;;;;;;31.12;30.65;99098.94;5066263;28;20968;-67
2022/08/02 11:15:47;;;;;;;2.60;2.05;;;;;;;31.50;30.50;99116.38;5070176;28;20188;-67
2022/08/02 11:18:14;;;;;;;4.28;2.78;;;;;;;31.75;30.58;99107.38;5069991;28;20194;-66
2022/08/02 11:20:40;;;;;;;2.97;1.90;;;;;;;31.50;30.05;99110.22;5070294;28;20198;-67
2022/08/02 11:23:35;;;;;;;2.80;2.03;;;;;;;31.15;30.32;99114.63;5069383;28;20188;-67
2022/08/02 11:26:24;;;;;;;2.05;1.35;;;;;;;31.04;30.62;99096.81;5070052;28;20196;-66
2022/08/02 11:28:51;;;;;;;3.33;2.00;;;;;;;31.17;30.82;99104.72;5069498;28;20211;-67
2022/08/02 11:31:18;;;;;;;3.70;1.70;;;;;;;31.43;30.45;99098.31;5070560;28;20202;-66
2022/08/02 11:33:45;;;;;;;6.35;4.25;;;;;;;31.70;30.54;99090.94;5069969;28;20206;-67
2022/08/02 11:36:12;;;;;;;2.05;1.67;;;;;;;31.44;29.93;99054.88;5069693;28;20719;-66
2022/08/02 11:38:38;;;;;;;1.70;1.60;;;;;;;31.87;30.23;99097.59;5069921;28;20271;-66
2022/08/02 11:41:07;;;;;;;4.68;2.28;;;;;;;32.09;30.07;99101.19;5069465;28;20198;-67
2022/08/02 11:43:35;;;;;;;2.72;2.50;;;;;;;32.26;29.57;99096.34;5069953;28;20195;-67
2022/08/02 11:46:03;;;;;;;1.67;1.58;;;;;;;32.32;27.31;99101.19;5069989;28;20513;-67
2022/08/02 11:48:31;;;;;;;4.22;1.67;;;;;;;32.33;27.57;99100.22;5070203;28;20219;-67